sensor_id;sensor_type;location;lat;lon;timestamp;P1;durP1;ratioP1;P2;durP2;ratioP2
17987;SDS011;9119;50.932;5.342;2022-12-29T00:02:25;1.93;;;1.47;;
17987;SDS011;9119;50.932;5.342;2022-12-29T00:04:52;6.90;;;2.80;;
17987;SDS011;9119;50.932;5.342;2022-12-29T00:07:18;2.10;;;1.23;;
17987;SDS011;9119;50.932;5.342;2022-12-29T00:09:44;4.30;;;1.10;;
17987;SDS011;9119;50.932;5.342;2022-12-29T00:12:12;2.33;;;1.83;;
17987;SDS011;9119;50.932;5.342;2022-12-29T00:14:38;2.33;;;1.60;;
17987;SDS011;9119;50.932;5.342;2022-12-29T00:17:22;1.93;;;1.20;;
17987;SDS011;9119;50.932;5.342;2022-12-29T00:19:47;6.07;;;3.23;;
17987;SDS011;9119;50.932;5.342;2022-12-29T00:22:31;2.83;;;1.03;;
17987;SDS011;9119;50.932;5.342;2022-12-29T00:25:15;1.90;;;1.50;;
17987;SDS011;9119;50.932;5.342;2022-12-29T00:28:00;4.77;;;2.07;;
17987;SDS011;9119;50.932;5.342;2022-12-29T00:30:44;1.77;;;0.80;;
17987;SDS011;9119;50.932;5.342;2022-12-29T00:33:29;1.30;;;1.00;;
17987;SDS011;9119;50.932;5.342;2022-12-29T00:36:19;2.47;;;1.13;;
17987;SDS011;9119;50.932;5.342;2022-12-29T00:38:53;1.43;;;0.90;;
17987;SDS011;9119;50.932;5.342;2022-12-29T00:41:44;2.13;;;1.40;;
17987;SDS011;9119;50.932;5.342;2022-12-29T00:44:28;1.93;;;1.20;;
17987;SDS011;9119;50.932;5.342;2022-12-29T00:46:54;2.20;;;1.40;;
17987;SDS011;9119;50.932;5.342;2022-12-29T00:49:19;1.47;;;1.10;;
17987;SDS011;9119;50.932;5.342;2022-12-29T00:54:23;2.37;;;1.07;;
17987;SDS011;9119;50.932;5.342;2022-12-29T00:56:49;1.20;;;1.10;;
17987;SDS011;9119;50.932;5.342;2022-12-29T00:59:16;1.83;;;0.90;;
17987;SDS011;9119;50.932;5.342;2022-12-29T01:01:43;1.43;;;1.17;;
17987;SDS011;9119;50.932;5.342;2022-12-29T01:04:09;1.30;;;1.10;;
17987;SDS011;9119;50.932;5.342;2022-12-29T01:06:36;3.93;;;1.17;;
17987;SDS011;9119;50.932;5.342;2022-12-29T01:09:03;1.50;;;1.10;;
17987;SDS011;9119;50.932;5.342;2022-12-29T01:11:48;4.30;;;1.57;;
17987;SDS011;9119;50.932;5.342;2022-12-29T01:14:18;2.10;;;1.10;;
17987;SDS011;9119;50.932;5.342;2022-12-29T01:16:45;2.23;;;1.20;;
17987;SDS011;9119;50.932;5.342;2022-12-29T01:19:11;2.90;;;1.23;;
17987;SDS011;9119;50.932;5.342;2022-12-29T01:21:37;1.57;;;0.90;;
17987;SDS011;9119;50.932;5.342;2022-12-29T01:24:03;2.00;;;1.33;;
17987;SDS011;9119;50.932;5.342;2022-12-29T01:26:29;5.57;;;1.40;;
17987;SDS011;9119;50.932;5.342;2022-12-29T01:28:55;6.30;;;1.00;;
17987;SDS011;9119;50.932;5.342;2022-12-29T01:31:21;2.20;;;1.00;;
17987;SDS011;9119;50.932;5.342;2022-12-29T01:33:46;2.30;;;1.03;;
17987;SDS011;9119;50.932;5.342;2022-12-29T01:36:13;1.93;;;1.00;;
17987;SDS011;9119;50.932;5.342;2022-12-29T01:38:41;2.90;;;1.03;;
17987;SDS011;9119;50.932;5.342;2022-12-29T01:41:08;3.20;;;1.17;;
17987;SDS011;9119;50.932;5.342;2022-12-29T01:43:42;1.77;;;1.10;;
17987;SDS011;9119;50.932;5.342;2022-12-29T01:48:55;12.80;;;4.10;;
17987;SDS011;9119;50.932;5.342;2022-12-29T01:51:35;7.00;;;1.50;;
17987;SDS011;9119;50.932;5.342;2022-12-29T01:54:04;2.37;;;1.50;;
17987;SDS011;9119;50.932;5.342;2022-12-29T01:56:38;5.87;;;1.37;;
17987;SDS011;9119;50.932;5.342;2022-12-29T01:59:05;2.23;;;1.20;;
17987;SDS011;9119;50.932;5.342;2022-12-29T02:01:36;4.73;;;1.10;;
17987;SDS011;9119;50.932;5.342;2022-12-29T02:04:02;4.40;;;1.83;;
17987;SDS011;9119;50.932;5.342;2022-12-29T02:06:29;6.70;;;3.50;;
17987;SDS011;9119;50.932;5.342;2022-12-29T02:08:59;3.97;;;1.20;;
17987;SDS011;9119;50.932;5.342;2022-12-29T02:11:25;5.13;;;1.20;;
17987;SDS011;9119;50.932;5.342;2022-12-29T02:13:53;2.80;;;1.10;;
17987;SDS011;9119;50.932;5.342;2022-12-29T02:26:52;1.53;;;1.00;;
17987;SDS011;9119;50.932;5.342;2022-12-29T02:35:23;1.77;;;0.80;;
17987;SDS011;9119;50.932;5.342;2022-12-29T02:46:03;2.00;;;0.83;;
17987;SDS011;9119;50.932;5.342;2022-12-29T02:48:38;1.50;;;0.90;;
17987;SDS011;9119;50.932;5.342;2022-12-29T02:51:12;2.00;;;0.87;;
17987;SDS011;9119;50.932;5.342;2022-12-29T02:53:45;0.80;;;0.67;;
17987;SDS011;9119;50.932;5.342;2022-12-29T02:56:29;2.17;;;1.00;;
17987;SDS011;9119;50.932;5.342;2022-12-29T02:58:55;1.80;;;0.83;;
17987;SDS011;9119;50.932;5.342;2022-12-29T03:07:05;1.03;;;0.80;;
17987;SDS011;9119;50.932;5.342;2022-12-29T03:09:52;3.43;;;0.90;;
17987;SDS011;9119;50.932;5.342;2022-12-29T03:15:25;1.77;;;0.97;;
17987;SDS011;9119;50.932;5.342;2022-12-29T03:18:46;1.87;;;0.90;;
17987;SDS011;9119;50.932;5.342;2022-12-29T03:21:19;1.70;;;0.60;;
17987;SDS011;9119;50.932;5.342;2022-12-29T03:24:28;1.83;;;0.80;;
17987;SDS011;9119;50.932;5.342;2022-12-29T03:27:00;1.83;;;0.80;;
17987;SDS011;9119;50.932;5.342;2022-12-29T03:29:29;2.63;;;1.10;;
17987;SDS011;9119;50.932;5.342;2022-12-29T03:32:00;1.43;;;0.63;;
17987;SDS011;9119;50.932;5.342;2022-12-29T03:34:28;1.33;;;0.90;;
17987;SDS011;9119;50.932;5.342;2022-12-29T03:36:57;0.87;;;0.60;;
17987;SDS011;9119;50.932;5.342;2022-12-29T03:39:28;6.53;;;0.80;;
17987;SDS011;9119;50.932;5.342;2022-12-29T03:42:01;2.93;;;0.80;;
17987;SDS011;9119;50.932;5.342;2022-12-29T03:44:31;2.07;;;1.07;;
17987;SDS011;9119;50.932;5.342;2022-12-29T03:46:59;1.83;;;0.90;;
17987;SDS011;9119;50.932;5.342;2022-12-29T03:49:25;1.93;;;0.70;;
17987;SDS011;9119;50.932;5.342;2022-12-29T03:51:51;6.00;;;1.10;;
17987;SDS011;9119;50.932;5.342;2022-12-29T03:54:16;2.73;;;0.90;;
17987;SDS011;9119;50.932;5.342;2022-12-29T03:56:42;3.93;;;1.23;;
17987;SDS011;9119;50.932;5.342;2022-12-29T03:59:08;3.20;;;1.33;;
17987;SDS011;9119;50.932;5.342;2022-12-29T04:01:33;1.73;;;0.70;;
17987;SDS011;9119;50.932;5.342;2022-12-29T04:03:59;2.03;;;0.73;;
17987;SDS011;9119;50.932;5.342;2022-12-29T04:06:25;4.23;;;1.13;;
17987;SDS011;9119;50.932;5.342;2022-12-29T04:08:50;1.97;;;0.90;;
17987;SDS011;9119;50.932;5.342;2022-12-29T04:11:16;3.07;;;1.00;;
17987;SDS011;9119;50.932;5.342;2022-12-29T04:13:42;8.07;;;1.13;;
17987;SDS011;9119;50.932;5.342;2022-12-29T04:16:07;4.00;;;1.10;;
17987;SDS011;9119;50.932;5.342;2022-12-29T04:18:33;6.97;;;1.17;;
17987;SDS011;9119;50.932;5.342;2022-12-29T04:20:59;1.73;;;0.80;;
17987;SDS011;9119;50.932;5.342;2022-12-29T04:23:25;4.13;;;0.93;;
17987;SDS011;9119;50.932;5.342;2022-12-29T04:25:51;5.80;;;0.90;;
17987;SDS011;9119;50.932;5.342;2022-12-29T04:28:17;5.37;;;0.90;;
17987;SDS011;9119;50.932;5.342;2022-12-29T04:30:43;7.10;;;0.83;;
17987;SDS011;9119;50.932;5.342;2022-12-29T04:33:09;4.03;;;1.07;;
17987;SDS011;9119;50.932;5.342;2022-12-29T04:35:35;4.57;;;1.20;;
17987;SDS011;9119;50.932;5.342;2022-12-29T04:38:01;3.50;;;0.80;;
17987;SDS011;9119;50.932;5.342;2022-12-29T04:40:27;2.50;;;1.00;;
17987;SDS011;9119;50.932;5.342;2022-12-29T04:42:52;2.30;;;0.80;;
17987;SDS011;9119;50.932;5.342;2022-12-29T04:45:18;3.80;;;0.90;;
17987;SDS011;9119;50.932;5.342;2022-12-29T04:47:44;4.57;;;1.87;;
17987;SDS011;9119;50.932;5.342;2022-12-29T04:50:09;2.83;;;0.90;;
17987;SDS011;9119;50.932;5.342;2022-12-29T04:52:35;4.73;;;0.70;;
17987;SDS011;9119;50.932;5.342;2022-12-29T04:55:01;3.73;;;1.13;;
17987;SDS011;9119;50.932;5.342;2022-12-29T04:57:26;5.00;;;0.70;;
17987;SDS011;9119;50.932;5.342;2022-12-29T04:59:52;2.87;;;0.80;;
17987;SDS011;9119;50.932;5.342;2022-12-29T05:02:18;4.63;;;0.90;;
17987;SDS011;9119;50.932;5.342;2022-12-29T05:04:44;3.30;;;1.07;;
17987;SDS011;9119;50.932;5.342;2022-12-29T05:07:10;4.80;;;1.30;;
17987;SDS011;9119;50.932;5.342;2022-12-29T05:09:36;3.80;;;1.27;;
17987;SDS011;9119;50.932;5.342;2022-12-29T05:12:02;5.37;;;1.27;;
17987;SDS011;9119;50.932;5.342;2022-12-29T05:14:28;4.80;;;0.70;;
17987;SDS011;9119;50.932;5.342;2022-12-29T05:16:54;3.80;;;0.87;;
17987;SDS011;9119;50.932;5.342;2022-12-29T05:19:19;2.13;;;1.00;;
17987;SDS011;9119;50.932;5.342;2022-12-29T05:21:45;0.87;;;0.67;;
17987;SDS011;9119;50.932;5.342;2022-12-29T05:24:11;4.77;;;0.93;;
17987;SDS011;9119;50.932;5.342;2022-12-29T05:26:37;5.27;;;0.83;;
17987;SDS011;9119;50.932;5.342;2022-12-29T05:29:02;2.77;;;1.17;;
17987;SDS011;9119;50.932;5.342;2022-12-29T05:31:28;2.77;;;1.10;;
17987;SDS011;9119;50.932;5.342;2022-12-29T05:33:54;3.73;;;1.17;;
17987;SDS011;9119;50.932;5.342;2022-12-29T05:36:19;4.30;;;1.10;;
17987;SDS011;9119;50.932;5.342;2022-12-29T05:38:45;9.43;;;1.37;;
17987;SDS011;9119;50.932;5.342;2022-12-29T05:41:11;6.93;;;1.40;;
17987;SDS011;9119;50.932;5.342;2022-12-29T05:43:36;5.40;;;1.00;;
17987;SDS011;9119;50.932;5.342;2022-12-29T05:46:03;8.03;;;1.20;;
17987;SDS011;9119;50.932;5.342;2022-12-29T05:48:29;3.50;;;1.03;;
17987;SDS011;9119;50.932;5.342;2022-12-29T05:50:54;5.33;;;1.50;;
17987;SDS011;9119;50.932;5.342;2022-12-29T05:53:20;6.37;;;1.10;;
17987;SDS011;9119;50.932;5.342;2022-12-29T05:55:46;2.63;;;1.10;;
17987;SDS011;9119;50.932;5.342;2022-12-29T05:58:13;3.20;;;1.13;;
17987;SDS011;9119;50.932;5.342;2022-12-29T06:00:39;9.27;;;1.63;;
17987;SDS011;9119;50.932;5.342;2022-12-29T06:03:05;4.37;;;1.10;;
17987;SDS011;9119;50.932;5.342;2022-12-29T06:05:31;8.30;;;1.80;;
17987;SDS011;9119;50.932;5.342;2022-12-29T06:07:56;6.67;;;1.20;;
17987;SDS011;9119;50.932;5.342;2022-12-29T06:10:22;7.60;;;1.60;;
17987;SDS011;9119;50.932;5.342;2022-12-29T06:12:48;3.67;;;0.93;;
17987;SDS011;9119;50.932;5.342;2022-12-29T06:15:13;11.00;;;1.67;;
17987;SDS011;9119;50.932;5.342;2022-12-29T06:17:39;10.07;;;1.70;;
17987;SDS011;9119;50.932;5.342;2022-12-29T06:20:06;11.37;;;1.70;;
17987;SDS011;9119;50.932;5.342;2022-12-29T06:22:33;4.73;;;1.33;;
17987;SDS011;9119;50.932;5.342;2022-12-29T06:24:58;8.37;;;1.60;;
17987;SDS011;9119;50.932;5.342;2022-12-29T06:27:24;4.67;;;1.10;;
17987;SDS011;9119;50.932;5.342;2022-12-29T06:29:52;11.13;;;1.63;;
17987;SDS011;9119;50.932;5.342;2022-12-29T06:32:18;6.07;;;1.50;;
17987;SDS011;9119;50.932;5.342;2022-12-29T06:34:44;9.73;;;1.60;;
17987;SDS011;9119;50.932;5.342;2022-12-29T06:37:10;14.00;;;1.57;;
17987;SDS011;9119;50.932;5.342;2022-12-29T06:39:36;7.23;;;1.10;;
17987;SDS011;9119;50.932;5.342;2022-12-29T06:42:02;8.83;;;1.67;;
17987;SDS011;9119;50.932;5.342;2022-12-29T06:44:28;8.23;;;1.67;;
17987;SDS011;9119;50.932;5.342;2022-12-29T06:46:53;8.40;;;1.53;;
17987;SDS011;9119;50.932;5.342;2022-12-29T06:49:19;9.03;;;1.70;;
17987;SDS011;9119;50.932;5.342;2022-12-29T06:51:45;5.87;;;1.40;;
17987;SDS011;9119;50.932;5.342;2022-12-29T06:54:11;10.43;;;3.10;;
17987;SDS011;9119;50.932;5.342;2022-12-29T06:56:37;7.33;;;1.33;;
17987;SDS011;9119;50.932;5.342;2022-12-29T06:59:03;7.13;;;1.27;;
17987;SDS011;9119;50.932;5.342;2022-12-29T07:01:28;42.30;;;4.63;;
17987;SDS011;9119;50.932;5.342;2022-12-29T07:03:54;9.63;;;1.83;;
17987;SDS011;9119;50.932;5.342;2022-12-29T07:06:20;8.23;;;1.50;;
17987;SDS011;9119;50.932;5.342;2022-12-29T07:08:46;12.63;;;1.60;;
17987;SDS011;9119;50.932;5.342;2022-12-29T07:11:11;5.33;;;1.50;;
17987;SDS011;9119;50.932;5.342;2022-12-29T07:13:37;14.90;;;3.23;;
17987;SDS011;9119;50.932;5.342;2022-12-29T07:16:07;4.80;;;1.33;;
17987;SDS011;9119;50.932;5.342;2022-12-29T07:18:33;12.83;;;1.90;;
17987;SDS011;9119;50.932;5.342;2022-12-29T07:20:59;10.80;;;2.00;;
17987;SDS011;9119;50.932;5.342;2022-12-29T07:23:25;7.47;;;1.17;;
17987;SDS011;9119;50.932;5.342;2022-12-29T07:25:58;8.17;;;1.80;;
17987;SDS011;9119;50.932;5.342;2022-12-29T07:28:24;10.50;;;1.70;;
17987;SDS011;9119;50.932;5.342;2022-12-29T07:30:50;7.13;;;1.33;;
17987;SDS011;9119;50.932;5.342;2022-12-29T07:33:16;7.87;;;1.53;;
17987;SDS011;9119;50.932;5.342;2022-12-29T07:35:41;20.97;;;2.33;;
17987;SDS011;9119;50.932;5.342;2022-12-29T07:38:07;7.77;;;2.07;;
17987;SDS011;9119;50.932;5.342;2022-12-29T07:40:33;13.17;;;1.70;;
17987;SDS011;9119;50.932;5.342;2022-12-29T07:42:58;11.40;;;2.07;;
17987;SDS011;9119;50.932;5.342;2022-12-29T07:45:24;6.13;;;1.20;;
17987;SDS011;9119;50.932;5.342;2022-12-29T07:47:49;13.37;;;2.00;;
17987;SDS011;9119;50.932;5.342;2022-12-29T07:50:15;11.47;;;1.67;;
17987;SDS011;9119;50.932;5.342;2022-12-29T07:52:41;8.00;;;1.43;;
17987;SDS011;9119;50.932;5.342;2022-12-29T07:55:07;8.87;;;1.40;;
17987;SDS011;9119;50.932;5.342;2022-12-29T07:57:33;10.50;;;2.17;;
17987;SDS011;9119;50.932;5.342;2022-12-29T07:59:58;15.97;;;2.33;;
17987;SDS011;9119;50.932;5.342;2022-12-29T08:02:24;8.20;;;1.73;;
17987;SDS011;9119;50.932;5.342;2022-12-29T08:04:51;11.97;;;1.77;;
17987;SDS011;9119;50.932;5.342;2022-12-29T08:07:17;8.07;;;1.60;;
17987;SDS011;9119;50.932;5.342;2022-12-29T08:09:42;9.37;;;1.97;;
17987;SDS011;9119;50.932;5.342;2022-12-29T08:12:09;13.30;;;1.93;;
17987;SDS011;9119;50.932;5.342;2022-12-29T08:14:35;10.33;;;1.80;;
17987;SDS011;9119;50.932;5.342;2022-12-29T08:17:01;12.33;;;1.90;;
17987;SDS011;9119;50.932;5.342;2022-12-29T08:19:27;12.13;;;2.00;;
17987;SDS011;9119;50.932;5.342;2022-12-29T08:21:53;10.73;;;1.67;;
17987;SDS011;9119;50.932;5.342;2022-12-29T08:24:18;9.00;;;1.70;;
17987;SDS011;9119;50.932;5.342;2022-12-29T08:26:44;8.90;;;2.10;;
17987;SDS011;9119;50.932;5.342;2022-12-29T08:29:10;12.40;;;1.73;;
17987;SDS011;9119;50.932;5.342;2022-12-29T08:31:35;13.03;;;2.20;;
17987;SDS011;9119;50.932;5.342;2022-12-29T08:34:01;10.37;;;2.10;;
17987;SDS011;9119;50.932;5.342;2022-12-29T08:36:28;9.53;;;1.93;;
17987;SDS011;9119;50.932;5.342;2022-12-29T08:38:55;12.20;;;1.80;;
17987;SDS011;9119;50.932;5.342;2022-12-29T08:41:21;9.43;;;1.83;;
17987;SDS011;9119;50.932;5.342;2022-12-29T08:43:47;13.60;;;2.33;;
17987;SDS011;9119;50.932;5.342;2022-12-29T08:46:13;13.23;;;2.23;;
17987;SDS011;9119;50.932;5.342;2022-12-29T08:48:40;13.37;;;1.97;;
17987;SDS011;9119;50.932;5.342;2022-12-29T08:51:05;10.30;;;1.87;;
17987;SDS011;9119;50.932;5.342;2022-12-29T08:53:31;8.77;;;1.47;;
17987;SDS011;9119;50.932;5.342;2022-12-29T08:55:58;12.33;;;2.17;;
17987;SDS011;9119;50.932;5.342;2022-12-29T08:58:24;6.23;;;1.77;;
17987;SDS011;9119;50.932;5.342;2022-12-29T09:00:54;7.93;;;1.67;;
17987;SDS011;9119;50.932;5.342;2022-12-29T09:03:23;7.83;;;1.90;;
17987;SDS011;9119;50.932;5.342;2022-12-29T09:05:50;17.77;;;2.40;;
17987;SDS011;9119;50.932;5.342;2022-12-29T09:08:16;13.57;;;2.03;;
17987;SDS011;9119;50.932;5.342;2022-12-29T09:10:42;10.03;;;1.97;;
17987;SDS011;9119;50.932;5.342;2022-12-29T09:13:12;11.97;;;1.67;;
17987;SDS011;9119;50.932;5.342;2022-12-29T09:15:39;10.03;;;1.93;;
17987;SDS011;9119;50.932;5.342;2022-12-29T09:18:05;12.87;;;2.17;;
17987;SDS011;9119;50.932;5.342;2022-12-29T09:20:32;11.83;;;1.87;;
17987;SDS011;9119;50.932;5.342;2022-12-29T09:22:58;8.77;;;1.90;;
17987;SDS011;9119;50.932;5.342;2022-12-29T09:25:24;14.23;;;1.90;;
17987;SDS011;9119;50.932;5.342;2022-12-29T09:27:51;11.77;;;2.50;;
17987;SDS011;9119;50.932;5.342;2022-12-29T09:30:20;10.23;;;1.53;;
17987;SDS011;9119;50.932;5.342;2022-12-29T09:32:47;8.80;;;2.40;;
17987;SDS011;9119;50.932;5.342;2022-12-29T09:35:14;11.63;;;2.40;;
17987;SDS011;9119;50.932;5.342;2022-12-29T09:37:41;9.47;;;2.23;;
17987;SDS011;9119;50.932;5.342;2022-12-29T09:40:14;12.77;;;1.80;;
17987;SDS011;9119;50.932;5.342;2022-12-29T09:43:12;15.63;;;2.20;;
17987;SDS011;9119;50.932;5.342;2022-12-29T09:45:55;13.80;;;2.07;;
17987;SDS011;9119;50.932;5.342;2022-12-29T09:48:27;16.37;;;2.50;;
17987;SDS011;9119;50.932;5.342;2022-12-29T09:50:58;13.70;;;2.30;;
17987;SDS011;9119;50.932;5.342;2022-12-29T09:53:28;19.83;;;3.47;;
17987;SDS011;9119;50.932;5.342;2022-12-29T09:55:58;14.93;;;2.00;;
17987;SDS011;9119;50.932;5.342;2022-12-29T09:58:28;9.07;;;2.00;;
17987;SDS011;9119;50.932;5.342;2022-12-29T10:06:26;15.67;;;2.53;;
17987;SDS011;9119;50.932;5.342;2022-12-29T10:14:51;20.43;;;2.60;;
17987;SDS011;9119;50.932;5.342;2022-12-29T10:20:28;21.30;;;2.67;;
17987;SDS011;9119;50.932;5.342;2022-12-29T10:26:00;15.57;;;2.23;;
17987;SDS011;9119;50.932;5.342;2022-12-29T10:28:38;18.60;;;3.03;;
17987;SDS011;9119;50.932;5.342;2022-12-29T10:31:19;10.87;;;2.00;;
17987;SDS011;9119;50.932;5.342;2022-12-29T10:33:49;14.20;;;2.30;;
17987;SDS011;9119;50.932;5.342;2022-12-29T10:37:09;14.17;;;2.30;;
17987;SDS011;9119;50.932;5.342;2022-12-29T10:44:40;12.93;;;2.07;;
17987;SDS011;9119;50.932;5.342;2022-12-29T10:47:08;8.67;;;1.97;;
17987;SDS011;9119;50.932;5.342;2022-12-29T10:49:42;9.17;;;2.30;;
17987;SDS011;9119;50.932;5.342;2022-12-29T10:52:09;26.47;;;2.77;;
17987;SDS011;9119;50.932;5.342;2022-12-29T10:54:48;16.77;;;2.80;;
17987;SDS011;9119;50.932;5.342;2022-12-29T10:59:43;12.27;;;2.37;;
17987;SDS011;9119;50.932;5.342;2022-12-29T11:07:32;11.03;;;2.40;;
17987;SDS011;9119;50.932;5.342;2022-12-29T11:12:54;14.10;;;2.63;;
17987;SDS011;9119;50.932;5.342;2022-12-29T11:15:22;8.83;;;2.07;;
17987;SDS011;9119;50.932;5.342;2022-12-29T11:17:57;12.50;;;2.47;;
17987;SDS011;9119;50.932;5.342;2022-12-29T11:20:31;17.03;;;2.40;;
17987;SDS011;9119;50.932;5.342;2022-12-29T11:23:00;13.57;;;2.13;;
17987;SDS011;9119;50.932;5.342;2022-12-29T11:25:27;9.80;;;2.37;;
17987;SDS011;9119;50.932;5.342;2022-12-29T11:30:58;11.87;;;2.13;;
17987;SDS011;9119;50.932;5.342;2022-12-29T11:33:27;16.20;;;2.40;;
17987;SDS011;9119;50.932;5.342;2022-12-29T11:35:57;12.97;;;2.30;;
17987;SDS011;9119;50.932;5.342;2022-12-29T11:38:28;15.23;;;2.60;;
17987;SDS011;9119;50.932;5.342;2022-12-29T11:40:59;12.30;;;2.70;;
17987;SDS011;9119;50.932;5.342;2022-12-29T11:43:29;11.33;;;2.70;;
17987;SDS011;9119;50.932;5.342;2022-12-29T11:46:03;11.83;;;2.00;;
17987;SDS011;9119;50.932;5.342;2022-12-29T11:48:40;13.57;;;2.13;;
17987;SDS011;9119;50.932;5.342;2022-12-29T11:51:07;8.97;;;2.30;;
17987;SDS011;9119;50.932;5.342;2022-12-29T11:53:38;17.30;;;3.27;;
17987;SDS011;9119;50.932;5.342;2022-12-29T11:56:12;10.40;;;2.13;;
17987;SDS011;9119;50.932;5.342;2022-12-29T11:58:42;10.60;;;2.30;;
17987;SDS011;9119;50.932;5.342;2022-12-29T12:01:22;14.73;;;2.40;;
17987;SDS011;9119;50.932;5.342;2022-12-29T12:03:56;16.10;;;2.43;;
17987;SDS011;9119;50.932;5.342;2022-12-29T12:06:27;12.17;;;2.30;;
17987;SDS011;9119;50.932;5.342;2022-12-29T12:08:56;18.07;;;2.90;;
17987;SDS011;9119;50.932;5.342;2022-12-29T12:11:28;13.23;;;2.47;;
17987;SDS011;9119;50.932;5.342;2022-12-29T12:14:06;9.73;;;2.13;;
17987;SDS011;9119;50.932;5.342;2022-12-29T12:16:43;11.17;;;2.17;;
17987;SDS011;9119;50.932;5.342;2022-12-29T12:21:59;11.33;;;2.00;;
17987;SDS011;9119;50.932;5.342;2022-12-29T12:36:02;11.53;;;2.87;;
17987;SDS011;9119;50.932;5.342;2022-12-29T12:38:34;11.07;;;2.53;;
17987;SDS011;9119;50.932;5.342;2022-12-29T12:41:13;8.97;;;1.70;;
17987;SDS011;9119;50.932;5.342;2022-12-29T13:30:21;13.60;;;2.20;;
17987;SDS011;9119;50.932;5.342;2022-12-29T13:33:06;8.83;;;2.03;;
17987;SDS011;9119;50.932;5.342;2022-12-29T13:38:43;10.60;;;2.50;;
17987;SDS011;9119;50.932;5.342;2022-12-29T13:43:59;17.37;;;2.53;;
17987;SDS011;9119;50.932;5.342;2022-12-29T13:46:29;9.87;;;2.07;;
17987;SDS011;9119;50.932;5.342;2022-12-29T13:49:01;11.67;;;2.20;;
17987;SDS011;9119;50.932;5.342;2022-12-29T13:51:32;15.67;;;3.10;;
17987;SDS011;9119;50.932;5.342;2022-12-29T13:54:17;7.77;;;2.13;;
17987;SDS011;9119;50.932;5.342;2022-12-29T13:57:20;11.37;;;2.00;;
17987;SDS011;9119;50.932;5.342;2022-12-29T14:00:06;19.47;;;3.00;;
17987;SDS011;9119;50.932;5.342;2022-12-29T14:02:44;13.80;;;2.27;;
17987;SDS011;9119;50.932;5.342;2022-12-29T14:07:43;15.67;;;2.67;;
17987;SDS011;9119;50.932;5.342;2022-12-29T14:12:59;14.53;;;2.47;;
17987;SDS011;9119;50.932;5.342;2022-12-29T14:15:37;12.50;;;2.40;;
17987;SDS011;9119;50.932;5.342;2022-12-29T14:20:39;20.73;;;5.37;;
17987;SDS011;9119;50.932;5.342;2022-12-29T14:23:17;15.33;;;2.53;;
17987;SDS011;9119;50.932;5.342;2022-12-29T14:28:35;11.97;;;2.10;;
17987;SDS011;9119;50.932;5.342;2022-12-29T14:34:14;18.90;;;3.57;;
17987;SDS011;9119;50.932;5.342;2022-12-29T14:36:36;13.43;;;3.03;;
17987;SDS011;9119;50.932;5.342;2022-12-29T14:39:38;17.27;;;2.87;;
17987;SDS011;9119;50.932;5.342;2022-12-29T14:44:32;19.57;;;3.47;;
17987;SDS011;9119;50.932;5.342;2022-12-29T14:47:00;18.80;;;3.63;;
17987;SDS011;9119;50.932;5.342;2022-12-29T14:49:32;15.97;;;3.03;;
17987;SDS011;9119;50.932;5.342;2022-12-29T14:52:07;9.47;;;2.60;;
17987;SDS011;9119;50.932;5.342;2022-12-29T14:54:42;27.53;;;4.07;;
17987;SDS011;9119;50.932;5.342;2022-12-29T14:57:15;17.40;;;2.83;;
17987;SDS011;9119;50.932;5.342;2022-12-29T14:59:46;17.47;;;2.90;;
17987;SDS011;9119;50.932;5.342;2022-12-29T15:02:19;24.60;;;3.53;;
17987;SDS011;9119;50.932;5.342;2022-12-29T15:04:47;18.90;;;3.23;;
17987;SDS011;9119;50.932;5.342;2022-12-29T15:07:13;19.33;;;3.23;;
17987;SDS011;9119;50.932;5.342;2022-12-29T15:09:47;21.00;;;2.80;;
17987;SDS011;9119;50.932;5.342;2022-12-29T15:12:23;15.33;;;2.40;;
17987;SDS011;9119;50.932;5.342;2022-12-29T15:17:49;18.97;;;2.97;;
17987;SDS011;9119;50.932;5.342;2022-12-29T15:20:28;22.57;;;2.83;;
17987;SDS011;9119;50.932;5.342;2022-12-29T15:25:35;17.17;;;2.47;;
17987;SDS011;9119;50.932;5.342;2022-12-29T15:28:02;25.20;;;3.87;;
17987;SDS011;9119;50.932;5.342;2022-12-29T15:30:30;18.33;;;2.40;;
17987;SDS011;9119;50.932;5.342;2022-12-29T15:32:56;20.73;;;2.87;;
17987;SDS011;9119;50.932;5.342;2022-12-29T15:35:31;11.47;;;2.93;;
17987;SDS011;9119;50.932;5.342;2022-12-29T15:37:59;17.43;;;2.90;;
17987;SDS011;9119;50.932;5.342;2022-12-29T15:40:37;11.33;;;2.60;;
17987;SDS011;9119;50.932;5.342;2022-12-29T15:45:37;22.47;;;2.60;;
17987;SDS011;9119;50.932;5.342;2022-12-29T15:48:04;11.80;;;1.80;;
17987;SDS011;9119;50.932;5.342;2022-12-29T15:50:34;11.53;;;2.50;;
17987;SDS011;9119;50.932;5.342;2022-12-29T15:53:02;11.00;;;2.60;;
17987;SDS011;9119;50.932;5.342;2022-12-29T15:55:35;15.70;;;2.80;;
17987;SDS011;9119;50.932;5.342;2022-12-29T15:58:04;15.17;;;3.10;;
17987;SDS011;9119;50.932;5.342;2022-12-29T16:00:45;10.17;;;2.47;;
17987;SDS011;9119;50.932;5.342;2022-12-29T16:03:18;19.87;;;2.90;;
17987;SDS011;9119;50.932;5.342;2022-12-29T16:09:15;17.47;;;3.33;;
17987;SDS011;9119;50.932;5.342;2022-12-29T16:11:52;20.30;;;3.77;;
17987;SDS011;9119;50.932;5.342;2022-12-29T16:14:21;21.00;;;3.80;;
17987;SDS011;9119;50.932;5.342;2022-12-29T16:16:57;16.80;;;4.57;;
17987;SDS011;9119;50.932;5.342;2022-12-29T16:21:54;12.00;;;3.00;;
17987;SDS011;9119;50.932;5.342;2022-12-29T16:24:23;15.40;;;3.30;;
17987;SDS011;9119;50.932;5.342;2022-12-29T16:29:29;17.37;;;3.37;;
17987;SDS011;9119;50.932;5.342;2022-12-29T16:31:58;14.70;;;2.70;;
17987;SDS011;9119;50.932;5.342;2022-12-29T16:34:31;28.33;;;12.77;;
17987;SDS011;9119;50.932;5.342;2022-12-29T16:37:02;10.77;;;2.70;;
17987;SDS011;9119;50.932;5.342;2022-12-29T16:39:33;8.80;;;2.53;;
17987;SDS011;9119;50.932;5.342;2022-12-29T16:47:45;15.07;;;3.30;;
17987;SDS011;9119;50.932;5.342;2022-12-29T16:50:30;16.40;;;2.63;;
17987;SDS011;9119;50.932;5.342;2022-12-29T16:52:56;22.33;;;3.60;;
17987;SDS011;9119;50.932;5.342;2022-12-29T16:55:23;13.27;;;3.10;;
17987;SDS011;9119;50.932;5.342;2022-12-29T16:57:49;17.00;;;4.40;;
17987;SDS011;9119;50.932;5.342;2022-12-29T17:00:22;14.70;;;3.00;;
17987;SDS011;9119;50.932;5.342;2022-12-29T17:02:50;10.10;;;2.83;;
17987;SDS011;9119;50.932;5.342;2022-12-29T17:05:21;20.90;;;3.70;;
17987;SDS011;9119;50.932;5.342;2022-12-29T17:07:46;17.53;;;2.93;;
17987;SDS011;9119;50.932;5.342;2022-12-29T17:10:13;9.63;;;2.33;;
17987;SDS011;9119;50.932;5.342;2022-12-29T17:12:40;13.17;;;2.50;;
17987;SDS011;9119;50.932;5.342;2022-12-29T17:15:12;14.30;;;3.13;;
17987;SDS011;9119;50.932;5.342;2022-12-29T17:17:43;21.50;;;4.10;;
17987;SDS011;9119;50.932;5.342;2022-12-29T17:22:42;16.40;;;3.17;;
17987;SDS011;9119;50.932;5.342;2022-12-29T17:25:14;19.67;;;3.93;;
17987;SDS011;9119;50.932;5.342;2022-12-29T17:30:20;17.20;;;3.30;;
17987;SDS011;9119;50.932;5.342;2022-12-29T17:35:24;14.27;;;2.93;;
17987;SDS011;9119;50.932;5.342;2022-12-29T17:37:50;11.73;;;2.93;;
17987;SDS011;9119;50.932;5.342;2022-12-29T17:43:00;13.40;;;2.87;;
17987;SDS011;9119;50.932;5.342;2022-12-29T17:45:27;11.67;;;2.40;;
17987;SDS011;9119;50.932;5.342;2022-12-29T17:47:54;22.80;;;3.87;;
17987;SDS011;9119;50.932;5.342;2022-12-29T17:50:22;15.67;;;4.30;;
17987;SDS011;9119;50.932;5.342;2022-12-29T17:52:53;13.17;;;2.90;;
17987;SDS011;9119;50.932;5.342;2022-12-29T17:55:30;17.50;;;3.27;;
17987;SDS011;9119;50.932;5.342;2022-12-29T17:57:56;19.43;;;4.47;;
17987;SDS011;9119;50.932;5.342;2022-12-29T18:00:23;8.43;;;2.50;;
17987;SDS011;9119;50.932;5.342;2022-12-29T18:02:54;20.10;;;5.33;;
17987;SDS011;9119;50.932;5.342;2022-12-29T18:05:23;20.03;;;5.80;;
17987;SDS011;9119;50.932;5.342;2022-12-29T18:07:51;10.33;;;2.70;;
17987;SDS011;9119;50.932;5.342;2022-12-29T18:10:18;13.97;;;3.23;;
17987;SDS011;9119;50.932;5.342;2022-12-29T18:12:46;14.73;;;3.47;;
17987;SDS011;9119;50.932;5.342;2022-12-29T18:15:23;15.67;;;3.60;;
17987;SDS011;9119;50.932;5.342;2022-12-29T18:17:57;10.23;;;3.13;;
17987;SDS011;9119;50.932;5.342;2022-12-29T18:20:25;7.63;;;2.77;;
17987;SDS011;9119;50.932;5.342;2022-12-29T18:22:52;6.17;;;2.37;;